createdAt,value
2022-11-12T00:01:12.380Z,25.10
2022-11-12T00:03:57.483Z,25.20
2022-11-12T00:06:42.970Z,32.50
2022-11-12T00:09:28.047Z,37.20
2022-11-12T00:12:13.142Z,33.80
2022-11-12T00:14:58.616Z,42.10
2022-11-12T00:17:43.650Z,40.80
2022-11-12T00:20:28.785Z,39.90
2022-11-12T00:23:13.859Z,37.40
2022-11-12T00:26:00.284Z,35.10
2022-11-12T00:28:45.384Z,37.30
2022-11-12T00:31:30.496Z,34.10
2022-11-12T00:34:15.946Z,33.60
2022-11-12T00:37:01.611Z,33.50
2022-11-12T00:39:46.930Z,38.50
2022-11-12T00:42:32.316Z,36.70
2022-11-12T00:45:17.242Z,34.90
2022-11-12T00:48:02.463Z,32.80
2022-11-12T00:50:47.770Z,36.70
2022-11-12T00:53:32.970Z,34.80
2022-11-12T00:56:18.216Z,34.10
2022-11-12T00:59:03.823Z,30.60
2022-11-12T01:01:49.804Z,35.00
2022-11-12T01:04:35.267Z,35.20
2022-11-12T01:07:20.708Z,34.60
2022-11-12T01:10:06.177Z,36.80
2022-11-12T01:12:51.392Z,34.30
2022-11-12T01:15:40.807Z,32.70
2022-11-12T01:18:26.378Z,30.60
2022-11-12T01:21:12.243Z,30.30
2022-11-12T01:23:58.296Z,31.40
2022-11-12T01:26:43.595Z,28.50
2022-11-12T01:29:28.745Z,29.60
2022-11-12T01:32:13.718Z,28.90
2022-11-12T01:34:58.812Z,30.00
2022-11-12T01:37:44.071Z,27.80
2022-11-12T01:40:29.147Z,29.90
2022-11-12T01:43:14.592Z,25.40
2022-11-12T01:46:00.624Z,25.70
2022-11-12T01:48:53.818Z,25.90
2022-11-12T01:51:43.700Z,24.00
2022-11-12T01:54:29.086Z,28.30
2022-11-12T01:57:14.440Z,27.20
2022-11-12T02:00:02.222Z,25.00
2022-11-12T02:02:52.363Z,24.80
2022-11-12T02:05:37.615Z,25.30
2022-11-12T02:08:23.825Z,22.20
2022-11-12T02:11:16.541Z,25.20
2022-11-12T06:20:26.564Z,28.20
2022-11-12T06:23:11.766Z,27.90
2022-11-12T06:25:57.219Z,26.90
2022-11-12T06:28:42.503Z,25.20
2022-11-12T06:31:27.722Z,34.80
2022-11-12T06:34:12.713Z,31.70
2022-11-12T06:36:57.729Z,25.40
2022-11-12T06:39:42.952Z,25.30
2022-11-12T06:42:28.196Z,23.10
2022-11-12T06:45:14.016Z,25.30
2022-11-12T06:47:59.692Z,21.50
2022-11-12T06:50:45.033Z,22.20
2022-11-12T06:53:30.894Z,19.90
2022-11-12T06:56:16.491Z,20.50
2022-11-12T06:59:01.738Z,20.30
2022-11-12T07:01:46.876Z,20.70
2022-11-12T07:04:32.239Z,18.50
2022-11-12T07:07:17.901Z,17.10
2022-11-12T07:10:03.568Z,19.80
2022-11-12T07:12:53.228Z,18.80
2022-11-12T07:15:38.740Z,17.30
2022-11-12T07:18:23.910Z,17.70
2022-11-12T07:21:11.463Z,16.00
2022-11-12T07:23:56.880Z,16.70
2022-11-12T07:26:47.304Z,17.60
2022-11-12T07:29:46.891Z,17.20
2022-11-12T07:32:38.511Z,19.90
2022-11-12T07:36:11.807Z,18.90
2022-11-12T07:38:57.632Z,18.40
2022-11-12T07:41:43.107Z,18.20
2022-11-12T07:44:28.138Z,19.40
2022-11-12T07:47:14.123Z,17.20
2022-11-12T07:50:14.594Z,17.80
2022-11-12T07:53:00.161Z,17.70
2022-11-12T07:55:55.984Z,19.00
2022-11-12T07:58:42.012Z,20.20
2022-11-12T08:01:34.011Z,17.40
2022-11-12T08:04:19.787Z,18.10
2022-11-12T08:07:05.019Z,18.80
2022-11-12T08:09:50.746Z,18.90
2022-11-12T08:12:35.824Z,16.60
2022-11-12T08:15:21.008Z,16.30
2022-11-12T08:18:06.524Z,17.20
2022-11-12T08:20:51.666Z,16.20
2022-11-12T08:23:37.029Z,16.50
2022-11-12T08:26:22.071Z,17.60
2022-11-12T08:29:08.962Z,15.40
2022-11-12T08:31:54.484Z,16.30
2022-11-12T08:34:41.348Z,16.90
2022-11-12T08:37:27.414Z,16.10
2022-11-12T08:40:13.008Z,13.30
2022-11-12T08:43:03.413Z,13.20
2022-11-12T08:45:50.064Z,16.20
2022-11-12T08:48:36.455Z,16.70
2022-11-12T08:51:21.648Z,14.70
2022-11-12T08:54:06.937Z,15.60
2022-11-12T08:56:51.980Z,16.70
2022-11-12T08:59:37.216Z,19.00
2022-11-12T09:02:22.484Z,17.10
2022-11-12T09:05:08.057Z,31.20
2022-11-12T09:08:06.876Z,27.90
2022-11-12T09:10:52.656Z,24.10
2022-11-12T09:13:38.367Z,15.10
2022-11-12T09:16:24.323Z,14.60
2022-11-12T09:19:09.947Z,26.70
2022-11-12T09:21:55.225Z,16.70
2022-11-12T09:24:40.960Z,15.40
2022-11-12T09:27:27.361Z,12.70
2022-11-12T09:30:12.712Z,14.30
2022-11-12T09:32:58.727Z,12.70
2022-11-12T18:51:51.652Z,19.80
2022-11-12T18:54:36.629Z,18.70
2022-11-12T18:57:22.736Z,21.00
2022-11-12T19:00:08.378Z,22.20
2022-11-12T19:02:53.915Z,18.10
2022-11-12T19:05:39.313Z,19.00
2022-11-12T19:08:24.443Z,18.60
2022-11-12T19:11:11.328Z,16.60
2022-11-12T19:13:57.030Z,16.70
2022-11-12T19:16:45.108Z,17.40
2022-11-12T19:19:30.919Z,15.50
2022-11-12T19:22:16.455Z,16.70
2022-11-12T19:25:04.541Z,17.80
2022-11-12T19:27:49.700Z,17.10
2022-11-12T19:30:34.916Z,15.80
2022-11-12T19:33:20.349Z,16.30
2022-11-12T19:36:07.698Z,15.10
2022-11-12T19:38:57.399Z,16.00
2022-11-12T19:41:43.386Z,14.90
2022-11-12T19:44:29.415Z,14.60
2022-11-12T19:47:14.677Z,13.90
2022-11-12T19:49:59.961Z,13.20
2022-11-12T19:52:45.295Z,12.70
2022-11-12T19:55:34.579Z,13.70
2022-11-12T19:58:23.984Z,13.00
2022-11-12T20:01:11.258Z,12.80
2022-11-12T20:03:56.496Z,14.20
2022-11-12T20:06:41.608Z,14.10
2022-11-12T20:09:27.194Z,12.60
2022-11-12T20:12:12.234Z,13.60
2022-11-12T20:14:57.796Z,14.20
2022-11-12T20:17:42.895Z,14.30
2022-11-12T20:20:28.367Z,13.40
2022-11-12T20:23:13.619Z,14.20
2022-11-12T20:26:09.894Z,13.70
2022-11-12T20:28:55.186Z,14.00
2022-11-12T20:31:42.069Z,14.90
2022-11-12T20:34:27.670Z,13.10
2022-11-12T20:37:13.026Z,12.90
2022-11-12T20:39:58.893Z,12.80
2022-11-12T20:42:45.825Z,13.30
2022-11-12T20:45:31.334Z,12.80
2022-11-12T20:48:16.695Z,13.20
2022-11-12T20:51:25.226Z,11.90
2022-11-12T20:54:11.067Z,10.00
2022-11-12T20:56:56.768Z,11.70
2022-11-12T20:59:42.166Z,11.40
2022-11-12T21:02:27.342Z,11.40
2022-11-12T21:05:12.855Z,11.40
2022-11-12T21:07:57.966Z,10.20
2022-11-12T21:10:43.206Z,10.00
2022-11-12T21:13:28.600Z,9.70
2022-11-12T21:16:14.146Z,9.90
2022-11-12T21:19:01.728Z,9.40
2022-11-12T21:21:46.801Z,8.30
2022-11-12T21:24:31.899Z,8.50
2022-11-12T21:27:17.540Z,8.00
2022-11-12T21:30:03.722Z,7.80
2022-11-12T21:32:49.362Z,8.30
2022-11-12T21:35:34.942Z,7.90
2022-11-12T21:38:20.277Z,7.80
2022-11-12T21:41:10.820Z,7.10
2022-11-12T21:43:55.973Z,7.50
2022-11-12T21:46:41.254Z,7.40
2022-11-12T21:49:26.684Z,8.80
2022-11-12T21:52:13.046Z,7.90
2022-11-12T21:54:58.273Z,6.90
2022-11-12T21:57:43.333Z,7.50
2022-11-12T22:00:41.541Z,7.80
2022-11-12T22:03:30.565Z,8.70
2022-11-12T22:06:15.861Z,6.60
2022-11-12T22:09:01.334Z,6.20
2022-11-12T22:11:46.666Z,5.80
2022-11-12T22:14:31.744Z,5.90
2022-11-12T22:17:17.160Z,6.10
2022-11-12T22:20:02.304Z,6.00
2022-11-12T22:22:47.560Z,5.10
2022-11-12T22:25:32.517Z,5.20
2022-11-12T22:28:17.801Z,5.70
2022-11-12T22:31:07.697Z,4.70
2022-11-12T22:33:53.483Z,4.40
2022-11-12T22:36:38.982Z,4.70
2022-11-12T22:39:24.514Z,4.90
2022-11-12T22:42:09.634Z,4.30
2022-11-12T22:44:54.977Z,3.90
2022-11-12T22:47:40.168Z,4.60
2022-11-12T22:50:25.576Z,4.20
2022-11-12T22:53:10.900Z,5.70
2022-11-12T22:55:56.132Z,5.80
2022-11-12T22:58:42.836Z,4.70
2022-11-12T23:01:30.669Z,4.40
2022-11-12T23:04:15.669Z,4.50
2022-11-12T23:07:01.651Z,5.40
2022-11-12T23:09:46.848Z,6.30
2022-11-12T23:12:32.122Z,6.20
2022-11-12T23:15:17.235Z,4.70
2022-11-12T23:18:02.451Z,5.50
2022-11-12T23:20:47.515Z,5.00
2022-11-12T23:23:32.686Z,5.90
2022-11-12T23:26:21.201Z,5.50
2022-11-12T23:29:06.815Z,5.10
2022-11-12T23:31:52.154Z,6.20
2022-11-12T23:34:37.258Z,5.10
2022-11-12T23:37:22.676Z,6.90
2022-11-12T23:40:09.315Z,5.60
2022-11-12T23:42:54.820Z,6.00
2022-11-12T23:45:40.140Z,5.70
2022-11-12T23:48:26.309Z,5.60
2022-11-12T23:51:13.264Z,5.70
2022-11-12T23:53:58.609Z,5.80
2022-11-12T23:56:44.540Z,7.30
2022-11-12T23:59:30.016Z,6.10
